Time;durP1;ratioP1;P1;durP2;ratioP2;P2;SDS_P1;SDS_P2;PMS_P1;PMS_P2;Temp;Humidity;BMP_temperature;BMP_pressure;BME280_temperature;BME280_humidity;BME280_pressure;Samples;Min_cycle;Max_cycle;Signal;HPM_P1;HPM_P2
2023/03/20 00:02:08;;;;;;;85.30;67.65;;;;;;;7.79;78.15;99505.74;1721319;81;22265;-56
2023/03/20 00:04:35;;;;;;;114.12;63.90;;;;;;;7.70;78.38;99504.35;1718864;81;21047;-56
2023/03/20 00:07:02;;;;;;;112.08;64.45;;;;;;;7.60;78.38;99496.05;1730673;81;21578;-55
2023/03/20 00:09:30;;;;;;;158.78;67.47;;;;;;;7.51;78.27;99494.27;1724691;81;21688;-56
2023/03/20 00:11:56;;;;;;;;;;;;;;;7.44;79.08;99494.09;1680744;83;21065;-56
2023/03/20 00:14:23;;;;;;;192.53;65.85;;;;;;;7.39;79.64;99495.13;1724521;82;20116;-56
2023/03/20 00:16:51;;;;;;;405.37;63.65;;;;;;;7.37;79.51;99494.34;1720846;81;21038;-56
2023/03/20 00:19:24;;;;;;;;;;;;;;;7.33;79.27;99488.84;1726521;81;22391;-56
2023/03/20 00:21:53;;;;;;;174.02;58.73;;;;;;;7.26;79.58;99488.70;1691067;83;20178;-56
2023/03/20 00:24:22;;;;;;;97.75;48.83;;;;;;;7.14;79.19;99489.14;1723521;81;20997;-56
2023/03/20 00:26:50;;;;;;;98.42;49.50;;;;;;;7.07;79.44;99492.88;1696080;81;21013;-56
2023/03/20 00:29:25;;;;;;;86.08;51.77;;;;;;;7.06;79.74;99493.80;1721156;81;21587;-56
2023/03/20 00:31:54;;;;;;;94.22;48.48;;;;;;;7.06;79.81;99493.80;1724401;81;20918;-56
2023/03/20 00:34:24;;;;;;;103.97;52.25;;;;;;;7.02;79.69;99494.79;1726057;81;21032;-56
2023/03/20 00:36:52;;;;;;;92.30;48.48;;;;;;;6.85;79.54;99493.64;1726195;81;21024;-56
2023/03/20 00:39:18;;;;;;;;;;;;;;;6.72;79.62;99494.97;1725944;81;21100;-56
2023/03/20 00:41:56;;;;;;;72.80;47.70;;;;;;;6.60;79.98;99505.78;1726160;81;20188;-56
2023/03/20 00:44:33;;;;;;;;;;;;;;;6.52;79.91;99505.20;1725802;81;20945;-56
2023/03/20 00:47:20;;;;;;;323.13;55.33;;;;;;;6.42;79.84;99500.33;1722686;81;20148;-56
2023/03/20 00:49:51;;;;;;;156.97;53.00;;;;;;;6.26;79.26;99501.73;1698563;83;21144;-56
2023/03/20 00:52:19;;;;;;;134.18;53.40;;;;;;;6.06;79.21;99507.58;1726982;81;21245;-56
2023/03/20 00:54:46;;;;;;;111.47;51.20;;;;;;;5.95;79.22;99501.89;1722363;81;20952;-56
2023/03/20 00:57:32;;;;;;;134.85;52.25;;;;;;;5.80;79.62;99500.61;1721067;81;20939;-55
2023/03/20 01:00:26;;;;;;;128.18;51.35;;;;;;;5.67;79.45;99500.58;1727494;81;21038;-56
2023/03/20 01:02:56;;;;;;;103.53;48.45;;;;;;;5.56;79.50;99497.86;1728449;81;20998;-56
2023/03/20 01:05:26;;;;;;;96.70;50.48;;;;;;;5.46;79.85;99493.87;1727296;81;20946;-56
2023/03/20 01:07:52;;;;;;;137.95;52.48;;;;;;;5.35;80.07;99493.34;1725520;81;21616;-56
2023/03/20 01:10:19;;;;;;;119.85;52.43;;;;;;;5.30;80.18;99492.63;1725961;81;21511;-56
2023/03/20 01:12:46;;;;;;;161.73;55.75;;;;;;;5.27;80.37;99488.83;1725744;81;21563;-56
2023/03/20 01:15:22;;;;;;;153.95;58.75;;;;;;;5.18;80.28;99488.63;1721883;81;20980;-55
2023/03/20 01:17:49;;;;;;;128.32;49.88;;;;;;;5.21;80.58;99483.81;1722720;81;20999;-56
2023/03/20 01:20:24;;;;;;;180.93;47.23;;;;;;;5.19;80.34;99495.97;1722586;81;21063;-56
2023/03/20 01:22:51;;;;;;;119.93;48.00;;;;;;;5.09;79.81;99491.03;1726550;82;20942;-56
2023/03/20 01:25:17;;;;;;;89.00;45.47;;;;;;;5.03;80.45;99497.69;1725156;81;21042;-56
2023/03/20 01:27:49;;;;;;;60.10;44.63;;;;;;;5.00;80.30;99497.78;1720395;81;20992;-56
2023/03/20 01:30:26;;;;;;;100.90;44.03;;;;;;;4.97;80.14;99490.09;1725315;81;21064;-56
2023/03/20 01:32:54;;;;;;;100.38;44.30;;;;;;;4.88;80.06;99489.07;1723858;81;21074;-56
2023/03/20 01:35:24;;;;;;;71.30;41.42;;;;;;;4.78;80.03;99491.05;1722877;82;21074;-56
2023/03/20 01:37:51;;;;;;;69.32;44.75;;;;;;;4.75;80.68;99486.41;1728406;81;21075;-56
2023/03/20 01:40:34;;;;;;;79.85;45.30;;;;;;;4.79;81.36;99482.84;1728414;81;21040;-55
2023/03/20 01:43:04;;;;;;;53.25;42.55;;;;;;;4.86;81.46;99484.38;1719793;81;21152;-56
2023/03/20 01:45:34;;;;;;;54.55;44.40;;;;;;;5.00;82.11;99495.19;1726814;81;21055;-56
2023/03/20 01:48:14;;;;;;;47.43;41.50;;;;;;;5.09;82.20;99492.33;1727189;81;20962;-56
2023/03/20 01:50:41;;;;;;;58.60;40.78;;;;;;;5.11;82.18;99487.97;1725317;81;20980;-56
2023/03/20 01:53:19;;;;;;;49.20;38.50;;;;;;;5.10;81.63;99488.88;1728564;81;21153;-56
2023/03/20 01:55:47;;;;;;;46.15;37.40;;;;;;;5.07;81.69;99485.08;1723683;81;21083;-56
2023/03/20 01:58:19;;;;;;;65.17;40.63;;;;;;;5.05;81.58;99482.13;1723619;81;21054;-55
2023/03/20 02:00:47;;;;;;;62.83;38.42;;;;;;;5.02;81.48;99480.48;1723843;81;21106;-56
2023/03/20 02:03:16;;;;;;;54.23;37.45;;;;;;;4.95;81.50;99480.23;1725716;81;21027;-56
2023/03/20 02:05:44;;;;;;;43.90;36.88;;;;;;;4.81;81.11;99481.91;1728001;81;21165;-56
2023/03/20 02:08:27;;;;;;;57.65;38.33;;;;;;;4.70;81.22;99477.05;1726510;81;21082;-55
2023/03/20 02:10:55;;;;;;;49.98;36.77;;;;;;;4.61;81.42;99475.14;1724776;81;21546;-56
2023/03/20 02:13:23;;;;;;;55.45;37.23;;;;;;;4.57;81.68;99473.09;1717107;81;21065;-56
2023/03/20 02:16:04;;;;;;;44.42;39.58;;;;;;;4.63;82.40;99473.38;1699053;81;21021;-56
2023/03/20 02:18:32;;;;;;;43.50;38.23;;;;;;;4.74;82.98;99469.20;1722999;81;21020;-56
2023/03/20 02:21:43;;;;;;;43.28;36.20;;;;;;;4.87;83.51;99469.25;1723247;81;20927;-56
2023/03/20 02:24:56;;;;;;;47.60;41.10;;;;;;;4.94;83.64;99472.08;1718993;81;21050;-56
2023/03/20 02:27:50;;;;;;;52.88;36.90;;;;;;;5.03;83.66;99465.34;1725567;81;21097;-56
2023/03/20 02:30:33;;;;;;;42.53;36.48;;;;;;;5.08;83.36;99466.06;1727808;81;21080;-56
2023/03/20 02:33:22;;;;;;;41.33;36.65;;;;;;;5.04;83.04;99458.00;1727382;81;22951;-56
2023/03/20 02:35:54;;;;;;;36.55;32.60;;;;;;;4.99;83.16;99470.22;1726570;81;21679;-56
2023/03/20 02:39:04;;;;;;;42.50;33.73;;;;;;;5.06;83.40;99463.95;1724386;81;21032;-56
2023/03/20 02:41:56;;;;;;;40.35;35.78;;;;;;;5.14;83.03;99465.88;1726105;81;21014;-56
2023/03/20 02:44:44;;;;;;;39.80;34.27;;;;;;;5.15;83.18;99462.41;1698552;83;21081;-56
2023/03/20 02:47:21;;;;;;;40.48;36.05;;;;;;;5.01;82.77;99454.63;1693905;83;21027;-55
2023/03/20 02:49:55;;;;;;;36.85;31.33;;;;;;;4.96;82.76;99452.19;1705110;83;21074;-56
2023/03/20 02:52:55;;;;;;;77.45;35.20;;;;;;;4.97;83.11;99447.41;1708018;82;21073;-56
2023/03/20 02:56:01;;;;;;;43.25;30.43;;;;;;;5.02;83.16;99446.84;1705933;82;21084;-56
2023/03/20 02:58:56;;;;;;;71.60;35.52;;;;;;;5.05;84.12;99453.21;1703833;82;22660;-55
2023/03/20 03:01:47;;;;;;;146.15;36.80;;;;;;;5.12;84.63;99445.66;1701440;82;21045;-56
2023/03/20 03:04:23;;;;;;;294.45;39.27;;;;;;;5.01;83.69;99432.19;1703116;82;21609;-56
2023/03/20 03:06:54;;;;;;;88.40;33.42;;;;;;;4.78;82.95;99434.59;1706562;82;21589;-56
2023/03/20 03:09:35;;;;;;;166.68;35.78;;;;;;;4.64;83.03;99441.44;1699575;82;21069;-56
2023/03/20 03:12:16;;;;;;;139.45;38.10;;;;;;;4.64;83.30;99435.81;1696840;82;21677;-55
2023/03/20 03:14:53;;;;;;;120.67;36.13;;;;;;;4.59;83.16;99429.92;1702182;82;21029;-56
2023/03/20 03:17:24;;;;;;;109.03;37.53;;;;;;;4.57;83.41;99426.55;1706566;82;21014;-56
2023/03/20 03:19:59;;;;;;;116.35;39.00;;;;;;;4.64;84.25;99425.47;1702418;82;21081;-56
2023/03/20 03:22:27;;;;;;;107.97;38.40;;;;;;;4.69;84.39;99430.08;1708496;82;21027;-55
2023/03/20 03:24:54;;;;;;;69.40;37.45;;;;;;;4.79;84.66;99420.76;1705230;82;21085;-55
2023/03/20 03:27:37;;;;;;;95.83;38.15;;;;;;;4.87;84.94;99423.97;1707645;82;21553;-56
2023/03/20 03:30:18;;;;;;;59.38;36.88;;;;;;;4.89;84.78;99422.20;1704093;82;21033;-55
2023/03/20 03:33:08;;;;;;;56.85;34.95;;;;;;;4.85;84.56;99428.37;1703869;82;21096;-56
2023/03/20 03:35:36;;;;;;;45.05;33.80;;;;;;;4.87;84.92;99425.27;1695419;82;21350;-56
2023/03/20 03:38:08;;;;;;;60.05;38.20;;;;;;;4.94;85.14;99420.33;1667344;84;21070;-56
2023/03/20 03:40:45;;;;;;;50.15;36.10;;;;;;;4.95;84.77;99422.02;1679638;83;21031;-56
2023/03/20 03:43:19;;;;;;;47.13;34.83;;;;;;;4.84;84.44;99419.73;1713008;81;21158;-56
2023/03/20 03:45:58;;;;;;;58.30;39.45;;;;;;;4.80;84.71;99414.72;1718455;81;21100;-55
2023/03/20 03:48:41;;;;;;;47.08;35.92;;;;;;;4.79;84.74;99413.87;1726463;81;21066;-56
2023/03/20 03:51:13;;;;;;;48.15;37.90;;;;;;;4.76;85.14;99396.28;1728564;81;21081;-55
2023/03/20 03:53:47;;;;;;;51.80;38.92;;;;;;;4.87;84.75;99404.16;1728203;81;21084;-55
2023/03/20 03:56:19;;;;;;;55.50;37.80;;;;;;;4.83;84.92;99405.57;1724180;81;21009;-55
2023/03/20 03:58:55;;;;;;;48.75;36.25;;;;;;;4.79;84.88;99405.23;1729981;81;21067;-55
2023/03/20 04:01:26;;;;;;;48.58;37.75;;;;;;;4.82;84.99;99410.35;1727604;81;21021;-55
2023/03/20 04:03:57;;;;;;;51.90;36.08;;;;;;;4.84;84.93;99400.78;1731689;81;21494;-55
2023/03/20 04:06:26;;;;;;;47.23;35.13;;;;;;;4.83;85.01;99399.10;1725773;81;20996;-55
2023/03/20 04:08:53;;;;;;;44.75;35.23;;;;;;;4.76;84.84;99400.16;1726751;81;21294;-55
2023/03/20 04:11:24;;;;;;;44.65;34.83;;;;;;;4.70;84.85;99398.59;1728049;81;21045;-56
2023/03/20 04:13:52;;;;;;;45.38;33.85;;;;;;;4.67;85.08;99399.52;1731828;80;20928;-56
2023/03/20 04:16:22;;;;;;;39.10;31.40;;;;;;;4.74;85.27;99394.20;1725713;81;21593;-55
2023/03/20 04:18:49;;;;;;;43.23;31.55;;;;;;;4.78;85.26;99398.38;1732482;81;21062;-56
2023/03/20 04:21:15;;;;;;;43.68;31.82;;;;;;;4.80;85.13;99389.69;1730664;80;21545;-55
2023/03/20 04:23:42;;;;;;;45.52;32.85;;;;;;;4.78;85.18;99393.20;1731630;81;21101;-55
2023/03/20 04:26:09;;;;;;;53.33;33.55;;;;;;;4.75;84.96;99390.72;1729090;81;21089;-56
2023/03/20 04:28:36;;;;;;;50.73;35.47;;;;;;;4.74;85.16;99383.86;1727933;81;21055;-55
2023/03/20 04:31:03;;;;;;;44.45;33.08;;;;;;;4.77;86.31;99378.59;1727907;81;21325;-55
2023/03/20 04:33:31;;;;;;;42.00;33.73;;;;;;;4.77;86.23;99378.14;1730634;81;21004;-55
2023/03/20 04:35:57;;;;;;;48.52;34.88;;;;;;;4.83;86.02;99377.11;1731940;81;21092;-55
2023/03/20 04:38:24;;;;;;;47.60;35.88;;;;;;;4.86;86.01;99371.39;1730190;81;21032;-56
2023/03/20 04:40:51;;;;;;;48.40;35.88;;;;;;;4.93;86.55;99378.55;1731913;81;21061;-56
2023/03/20 04:43:18;;;;;;;48.40;35.85;;;;;;;5.04;86.94;99380.37;1734633;81;21114;-56
2023/03/20 04:45:44;;;;;;;48.87;35.13;;;;;;;5.22;87.27;99372.93;1735913;81;21013;-56
2023/03/20 04:48:11;;;;;;;51.77;36.07;;;;;;;5.46;87.97;99365.69;1730865;81;21519;-55
2023/03/20 04:50:38;;;;;;;51.67;36.30;;;;;;;5.61;87.79;99370.36;1731607;81;21073;-55
2023/03/20 04:53:05;;;;;;;47.53;36.23;;;;;;;5.76;87.54;99366.86;1732802;81;21599;-55
2023/03/20 04:55:32;;;;;;;44.10;34.70;;;;;;;5.75;86.73;99370.36;1731629;81;21126;-56
2023/03/20 04:57:58;;;;;;;39.73;31.33;;;;;;;5.82;87.28;99369.25;1729793;81;21040;-56
2023/03/20 05:00:25;;;;;;;35.38;29.45;;;;;;;5.94;87.28;99372.77;1695416;83;21140;-55
2023/03/20 05:02:52;;;;;;;39.88;29.82;;;;;;;5.98;87.32;99357.50;1727428;82;21101;-55
2023/03/20 05:05:21;;;;;;;36.28;28.35;;;;;;;6.15;87.37;99366.44;1731092;81;21012;-55
2023/03/20 05:07:47;;;;;;;35.90;29.40;;;;;;;6.18;87.24;99371.06;1726442;81;21046;-55
2023/03/20 05:10:14;;;;;;;39.23;29.15;;;;;;;6.17;86.80;99367.25;1723169;81;21011;-55
2023/03/20 05:12:41;;;;;;;32.58;25.43;;;;;;;6.16;86.60;99369.42;1730314;81;21093;-55
2023/03/20 05:15:09;;;;;;;37.85;30.17;;;;;;;6.18;86.97;99366.34;1731150;81;21109;-56
2023/03/20 05:17:39;;;;;;;36.63;27.80;;;;;;;6.24;87.03;99371.30;1727197;81;21059;-56
2023/03/20 05:20:08;;;;;;;36.13;26.90;;;;;;;6.21;86.93;99374.84;1731249;81;21513;-55
2023/03/20 05:22:35;;;;;;;36.60;29.07;;;;;;;6.26;87.16;99377.28;1704141;81;21032;-55
2023/03/20 05:25:03;;;;;;;37.23;27.85;;;;;;;6.29;86.91;99377.17;1721669;81;21016;-55
2023/03/20 05:27:29;;;;;;;44.88;28.92;;;;;;;6.33;86.82;99378.78;1733298;81;21013;-55
2023/03/20 05:29:56;;;;;;;44.98;29.55;;;;;;;6.41;86.92;99367.68;1730773;81;21069;-55
2023/03/20 05:32:22;;;;;;;56.33;37.73;;;;;;;6.46;86.91;99372.22;1728373;81;21055;-55
2023/03/20 05:34:49;;;;;;;39.23;29.77;;;;;;;6.41;86.31;99370.27;1727306;81;21073;-56
2023/03/20 05:37:18;;;;;;;39.15;29.55;;;;;;;6.34;85.96;99362.30;1733901;82;21022;-55
2023/03/20 05:39:45;;;;;;;32.40;27.05;;;;;;;6.25;85.90;99365.23;1723280;81;22310;-55
2023/03/20 05:42:12;;;;;;;39.98;28.77;;;;;;;6.18;86.02;99369.77;1727698;82;20944;-56
2023/03/20 05:44:38;;;;;;;41.33;28.45;;;;;;;6.19;86.37;99362.83;1727174;81;21468;-55
2023/03/20 05:47:05;;;;;;;40.08;28.67;;;;;;;6.22;86.43;99369.23;1730475;81;21032;-55
2023/03/20 05:49:34;;;;;;;35.40;28.90;;;;;;;6.22;86.60;99360.16;1730337;81;21068;-56
2023/03/20 05:52:01;;;;;;;46.13;30.25;;;;;;;6.26;86.86;99360.44;1733111;81;20999;-55
2023/03/20 05:54:28;;;;;;;80.53;67.60;;;;;;;6.36;87.41;99358.34;1730706;80;20959;-56
2023/03/20 05:56:55;;;;;;;86.72;70.67;;;;;;;6.46;87.88;99359.26;1729825;81;21121;-56
2023/03/20 05:59:21;;;;;;;71.60;60.23;;;;;;;6.66;89.13;99359.82;1728266;81;21101;-56
2023/03/20 06:01:48;;;;;;;43.95;33.73;;;;;;;6.91;88.86;99358.91;1721992;81;21052;-56
2023/03/20 06:04:16;;;;;;;40.48;31.05;;;;;;;7.03;88.29;99365.38;1732253;81;21078;-56
2023/03/20 06:06:42;;;;;;;37.10;29.05;;;;;;;7.15;88.37;99361.03;1732897;80;21156;-56
2023/03/20 06:09:09;;;;;;;34.40;26.85;;;;;;;7.34;88.65;99360.70;1730092;81;21077;-55
2023/03/20 06:11:36;;;;;;;36.80;27.70;;;;;;;7.52;88.46;99367.36;1730799;80;21082;-56
2023/03/20 06:14:08;;;;;;;35.98;24.92;;;;;;;7.69;88.73;99364.07;1727037;81;21677;-56
2023/03/20 06:16:35;;;;;;;38.73;27.80;;;;;;;7.90;88.79;99360.59;1729142;81;21094;-57
2023/03/20 06:19:01;;;;;;;29.65;22.02;;;;;;;8.11;88.71;99365.78;1725762;81;21095;-56
2023/03/20 06:21:28;;;;;;;33.67;23.90;;;;;;;8.34;88.89;99369.98;1731787;81;20979;-56
2023/03/20 06:23:54;;;;;;;37.98;25.52;;;;;;;8.55;88.97;99363.88;1727107;81;21593;-57
2023/03/20 06:26:21;;;;;;;31.30;21.77;;;;;;;8.78;88.99;99364.59;1723493;81;21783;-56
2023/03/20 06:28:47;;;;;;;31.90;20.30;;;;;;;8.94;88.93;99362.98;1732405;81;21922;-56
2023/03/20 06:31:15;;;;;;;23.18;18.23;;;;;;;9.07;88.55;99367.98;1739902;82;21061;-56
2023/03/20 06:33:41;;;;;;;;;;;;;;;9.10;88.37;99371.77;1727694;81;21636;-56
2023/03/20 06:36:09;;;;;;;21.17;16.85;;;;;;;9.12;88.22;99372.52;1687281;84;20504;-56
2023/03/20 06:38:37;;;;;;;23.95;17.30;;;;;;;9.14;88.17;99373.30;1721953;81;21001;-57
2023/03/20 06:41:05;;;;;;;19.98;16.30;;;;;;;9.43;89.42;99350.22;1724360;81;21451;-57
2023/03/20 06:43:34;;;;;;;24.47;19.65;;;;;;;9.43;89.42;99350.22;1720754;81;21052;-57
2023/03/20 06:46:01;;;;;;;22.07;17.95;;;;;;;9.99;89.39;99374.41;1718862;82;21555;-57
2023/03/20 06:48:28;;;;;;;22.70;17.40;;;;;;;10.40;88.39;99354.06;1704132;82;21300;-57
2023/03/20 06:50:56;;;;;;;22.60;15.58;;;;;;;10.40;88.39;99354.06;1689110;82;21030;-57
2023/03/20 06:53:32;;;;;;;13.35;11.73;;;;;;;10.61;88.60;99373.42;1722853;82;20967;-56
2023/03/20 06:56:03;;;;;;;18.82;13.53;;;;;;;10.73;88.59;99368.87;1712143;82;21073;-57
2023/03/20 06:58:31;;;;;;;16.10;12.63;;;;;;;10.83;88.19;99375.27;1683031;83;21027;-57
2023/03/20 07:01:01;;;;;;;11.88;10.25;;;;;;;10.80;87.73;99370.22;1664369;84;20999;-57
2023/03/20 07:03:34;;;;;;;13.72;12.07;;;;;;;10.71;87.67;99369.41;1715906;82;21515;-57
2023/03/20 07:06:01;;;;;;;15.08;12.50;;;;;;;10.71;87.82;99366.33;1719750;82;20975;-57
2023/03/20 07:08:28;;;;;;;17.87;9.78;;;;;;;10.73;87.77;99370.18;1713741;82;20928;-57
2023/03/20 07:10:58;;;;;;;14.53;12.45;;;;;;;10.75;88.03;99361.78;1716224;82;21039;-57
2023/03/20 07:13:25;;;;;;;13.58;9.93;;;;;;;10.71;87.69;99366.33;1707133;82;21017;-56
2023/03/20 07:15:51;;;;;;;18.85;13.72;;;;;;;10.71;87.99;99357.66;1709653;82;21012;-56
2023/03/20 07:18:18;;;;;;;16.83;13.93;;;;;;;10.74;88.05;99365.33;1722088;82;20952;-57
2023/03/20 07:20:47;;;;;;;19.27;15.55;;;;;;;10.80;88.33;99366.30;1713628;82;21018;-57
2023/03/20 07:23:13;;;;;;;16.35;10.85;;;;;;;10.89;88.37;99364.48;1719918;82;21119;-57
2023/03/20 07:25:40;;;;;;;14.25;12.53;;;;;;;10.95;88.09;99368.53;1713696;82;20997;-56
2023/03/20 07:28:08;;;;;;;16.50;13.20;;;;;;;11.04;88.41;99377.67;1715706;82;20996;-57
2023/03/20 07:30:35;;;;;;;13.18;11.83;;;;;;;11.09;87.85;99378.23;1713203;82;21024;-57
2023/03/20 07:33:02;;;;;;;17.42;12.68;;;;;;;10.95;87.34;99377.23;1720599;82;20986;-57
2023/03/20 07:35:28;;;;;;;14.23;12.78;;;;;;;10.87;87.42;99376.81;1713613;82;20902;-57
2023/03/20 07:37:57;;;;;;;14.75;12.80;;;;;;;10.78;87.44;99374.67;1707039;82;21024;-57
2023/03/20 07:40:23;;;;;;;17.32;14.58;;;;;;;10.63;87.65;99366.36;1702126;82;21086;-57
2023/03/20 07:42:51;;;;;;;18.23;14.30;;;;;;;10.62;87.63;99376.44;1678527;83;21038;-57
2023/03/20 07:45:18;;;;;;;;;;;;;;;10.64;87.92;99378.48;1675813;84;21009;-58
2023/03/20 07:47:48;;;;;;;18.12;14.20;;;;;;;10.83;88.51;99372.66;1730328;81;20197;-57
2023/03/20 07:50:16;;;;;;;21.60;16.93;;;;;;;11.05;88.33;99379.34;1726111;81;20956;-57
2023/03/20 07:52:50;;;;;;;14.53;13.03;;;;;;;11.38;88.76;99374.86;1719017;81;21047;-57
2023/03/20 07:55:17;;;;;;;15.83;12.88;;;;;;;12.04;88.48;99375.48;1719054;82;21454;-57
2023/03/20 07:57:43;;;;;;;16.80;13.78;;;;;;;12.04;88.48;99375.48;1719771;82;20949;-57
2023/03/20 08:00:12;;;;;;;16.17;14.47;;;;;;;12.30;88.16;99376.11;1718957;82;21107;-57
2023/03/20 08:02:39;;;;;;;15.88;14.00;;;;;;;12.39;87.77;99369.95;1721088;82;21142;-57
2023/03/20 08:05:09;;;;;;;17.23;14.43;;;;;;;12.37;87.00;99377.05;1719719;82;20968;-57
2023/03/20 08:07:36;;;;;;;15.10;12.90;;;;;;;12.28;86.75;99369.28;1717946;82;21102;-57
2023/03/20 08:10:04;;;;;;;15.28;12.75;;;;;;;12.23;86.66;99368.23;1715229;82;20997;-57
2023/03/20 08:12:31;;;;;;;16.52;13.22;;;;;;;12.31;87.37;99371.23;1724638;82;21055;-57
2023/03/20 08:14:58;;;;;;;17.40;13.30;;;;;;;12.40;87.44;99370.31;1713144;82;21120;-57
2023/03/20 08:17:26;;;;;;;14.13;12.70;;;;;;;12.48;87.29;99361.52;1722428;82;21010;-57
2023/03/20 08:19:53;;;;;;;15.13;13.40;;;;;;;12.41;85.58;99362.85;1722107;82;22021;-57
2023/03/20 08:22:20;;;;;;;14.85;12.80;;;;;;;12.43;86.59;99359.65;1718872;82;21618;-57
2023/03/20 08:24:48;;;;;;;16.57;13.30;;;;;;;12.47;86.50;99359.86;1718220;82;21555;-57
2023/03/20 08:27:18;;;;;;;15.15;12.82;;;;;;;12.61;87.06;99359.84;1716367;82;21106;-57
2023/03/20 08:29:45;;;;;;;14.18;12.33;;;;;;;12.81;86.94;99365.64;1714266;82;20988;-57
2023/03/20 08:32:27;;;;;;;15.72;12.82;;;;;;;13.15;86.99;99362.57;1713063;82;21550;-57
2023/03/20 08:34:44;;;;;;;13.53;12.18;;;;;;;13.36;86.22;99358.22;1690425;82;20994;-57
2023/03/20 08:37:14;;;;;;;13.03;11.70;;;;;;;13.49;86.67;99354.34;1727315;82;21516;-58
2023/03/20 08:39:43;;;;;;;12.82;11.55;;;;;;;13.74;86.68;99356.20;1718012;82;21099;-57
2023/03/20 08:42:09;;;;;;;13.10;11.63;;;;;;;13.90;86.39;99354.25;1707711;82;21563;-57
2023/03/20 08:44:44;;;;;;;19.27;12.88;;;;;;;13.82;82.45;99360.48;1713347;82;21165;-57
2023/03/20 08:47:06;;;;;;;13.20;11.90;;;;;;;13.53;83.40;99354.06;1694105;83;21041;-57
2023/03/20 08:49:34;;;;;;;14.73;12.70;;;;;;;13.58;85.09;99358.98;1698091;83;21014;-57
2023/03/20 08:52:01;;;;;;;15.55;12.68;;;;;;;13.70;86.34;99352.95;1697476;83;21112;-56
2023/03/20 08:54:27;;;;;;;13.28;11.88;;;;;;;14.14;85.91;99353.53;1696231;83;21108;-57
2023/03/20 08:56:54;;;;;;;15.63;12.27;;;;;;;14.72;86.12;99351.70;1668998;84;21021;-57
2023/03/20 08:59:21;;;;;;;12.50;11.20;;;;;;;15.35;87.28;99348.53;1699428;83;21105;-57
2023/03/20 09:01:48;;;;;;;13.22;11.55;;;;;;;15.88;85.94;99356.91;1693108;83;21096;-57
2023/03/20 09:04:32;;;;;;;;;;;;;;;;;;;;;
2023/03/20 09:06:51;;;;;;;14.90;10.43;;;;;;;15.50;83.00;99353.61;1632505;86;21053;-57
2023/03/20 09:09:20;;;;;;;9.88;8.88;;;;;;;15.14;84.18;99363.22;1613979;86;21065;-57
2023/03/20 09:11:47;;;;;;;11.15;8.85;;;;;;;14.84;82.41;99360.50;1632932;85;21027;-57
2023/03/20 09:14:14;;;;;;;12.50;8.97;;;;;;;14.53;83.36;99362.64;1637212;86;21049;-57
2023/03/20 09:16:40;;;;;;;11.38;9.55;;;;;;;14.24;83.23;99365.10;1634703;84;21221;-57
2023/03/20 09:19:07;;;;;;;10.23;8.70;;;;;;;13.94;82.84;99371.46;1637780;85;21120;-57
2023/03/20 09:21:33;;;;;;;11.45;8.85;;;;;;;13.71;82.70;99377.41;1636249;84;21002;-57
2023/03/20 09:24:02;;;;;;;9.07;8.13;;;;;;;13.41;82.74;99381.06;1635367;84;21049;-57
2023/03/20 09:26:28;;;;;;;8.90;7.95;;;;;;;13.25;82.46;99385.57;1630545;85;21030;-58
2023/03/20 09:28:55;;;;;;;8.43;7.63;;;;;;;12.88;81.80;99385.27;1642743;85;21624;-57
2023/03/20 09:31:22;;;;;;;8.07;7.27;;;;;;;12.67;82.24;99389.59;1636933;85;21766;-57
2023/03/20 09:33:48;;;;;;;8.98;7.97;;;;;;;12.51;82.33;99383.59;1599676;86;21570;-56
2023/03/20 09:36:15;;;;;;;10.72;8.35;;;;;;;12.35;82.62;99386.76;1642605;85;21132;-56
2023/03/20 09:38:42;;;;;;;11.48;10.00;;;;;;;12.24;82.71;99393.97;1640073;85;21021;-57
2023/03/20 09:41:20;;;;;;;14.55;10.03;;;;;;;12.30;82.24;99397.05;1640364;85;21005;-57
2023/03/20 09:44:09;;;;;;;9.90;8.75;;;;;;;12.34;82.35;99390.31;1637922;85;22300;-57
2023/03/20 09:47:07;;;;;;;12.95;9.98;;;;;;;12.61;83.54;99388.66;1702872;82;21183;-57
2023/03/20 09:49:48;;;;;;;10.18;8.63;;;;;;;13.44;81.42;99386.11;1699280;83;21092;-57
2023/03/20 09:52:37;;;;;;;11.53;8.78;;;;;;;14.24;82.76;99378.23;1696927;81;21030;-59
2023/03/20 09:55:20;;;;;;;10.23;9.10;;;;;;;14.61;81.30;99381.83;1701305;82;21032;-57
2023/03/20 09:57:52;;;;;;;10.05;9.05;;;;;;;15.33;80.33;99376.73;1697997;82;21013;-58
2023/03/20 10:00:27;;;;;;;10.68;8.65;;;;;;;14.89;78.59;99383.36;1693319;81;21498;-57
2023/03/20 10:03:01;;;;;;;10.43;8.88;;;;;;;14.51;79.20;99390.80;1698942;82;21094;-58
2023/03/20 10:06:01;;;;;;;10.85;9.10;;;;;;;14.19;79.55;99394.77;1719489;82;21006;-57
2023/03/20 10:08:35;;;;;;;10.93;9.80;;;;;;;13.66;78.23;99399.98;1721728;81;21062;-58
2023/03/20 10:11:25;;;;;;;13.38;10.95;;;;;;;13.23;78.91;99417.62;1721145;82;21453;-58
2023/03/20 10:14:39;;;;;;;11.73;10.13;;;;;;;12.76;78.73;99413.06;1714099;82;21738;-58
2023/03/20 10:17:20;;;;;;;11.73;10.38;;;;;;;12.54;79.95;99410.91;1717938;81;21074;-58
2023/03/20 10:19:58;;;;;;;13.78;11.25;;;;;;;12.53;80.08;99414.47;1723195;82;21076;-57
2023/03/20 10:22:35;;;;;;;12.23;10.93;;;;;;;12.45;78.87;99406.23;1707555;82;21620;-57
2023/03/20 10:25:25;;;;;;;13.05;11.45;;;;;;;12.23;79.14;99410.11;1709576;82;21522;-57
2023/03/20 10:28:00;;;;;;;15.30;13.25;;;;;;;12.05;79.50;99415.13;1682727;83;21177;-57
2023/03/20 10:31:01;;;;;;;18.87;14.90;;;;;;;11.87;79.45;99407.86;1716575;82;20999;-57
2023/03/20 10:33:49;;;;;;;16.87;14.45;;;;;;;11.47;79.78;99409.27;1718722;80;21042;-57
2023/03/20 10:36:50;;;;;;;17.40;14.68;;;;;;;11.47;79.78;99409.27;1717295;82;20998;-57
2023/03/20 10:39:55;;;;;;;18.87;15.32;;;;;;;11.31;79.89;99408.79;1705926;82;21034;-56
2023/03/20 10:42:27;;;;;;;20.52;17.07;;;;;;;11.08;80.69;99415.75;1705997;83;21129;-57
2023/03/20 10:45:18;;;;;;;23.67;20.43;;;;;;;10.84;80.19;99413.55;1713268;82;21097;-57
2023/03/20 10:47:50;;;;;;;30.60;24.45;;;;;;;10.73;80.34;99419.80;1731372;81;21078;-56
2023/03/20 10:50:23;;;;;;;23.20;19.60;;;;;;;10.53;81.06;99423.45;1728557;81;21562;-56
2023/03/20 10:52:53;;;;;;;27.55;22.48;;;;;;;10.44;80.48;99422.59;1725564;81;20999;-57
2023/03/20 10:55:25;;;;;;;22.58;19.67;;;;;;;10.35;81.60;99429.14;1727578;81;21067;-57
2023/03/20 10:58:14;;;;;;;29.48;23.52;;;;;;;10.15;83.37;99424.06;1723230;81;21077;-57
2023/03/20 11:00:41;;;;;;;30.62;23.15;;;;;;;9.99;81.99;99426.11;1729700;81;21000;-57
2023/03/20 11:03:24;;;;;;;33.63;23.93;;;;;;;9.85;81.95;99420.73;1728350;81;21037;-57
2023/03/20 11:05:59;;;;;;;26.95;22.80;;;;;;;9.79;81.94;99424.95;1731830;81;21592;-57
2023/03/20 11:08:36;;;;;;;27.45;22.45;;;;;;;9.93;81.93;99427.72;1726393;81;21011;-57
2023/03/20 11:11:06;;;;;;;28.80;22.77;;;;;;;10.00;81.91;99428.29;1731107;81;20909;-58
2023/03/20 11:13:44;;;;;;;29.27;21.52;;;;;;;10.06;82.12;99433.19;1736362;81;21135;-57
2023/03/20 11:16:28;;;;;;;28.07;22.10;;;;;;;10.13;82.06;99433.25;1727626;81;21629;-58
2023/03/20 11:19:07;;;;;;;32.28;22.32;;;;;;;10.22;81.64;99428.03;1712973;82;21045;-58
2023/03/20 11:21:48;;;;;;;31.62;21.93;;;;;;;10.22;81.25;99430.64;1703833;83;21163;-58
2023/03/20 11:24:43;;;;;;;22.48;18.07;;;;;;;10.11;80.82;99431.20;1680451;84;21544;-58
2023/03/20 11:27:14;;;;;;;31.12;23.50;;;;;;;10.13;81.17;99438.94;1698811;82;21029;-58
2023/03/20 11:29:43;;;;;;;28.95;21.50;;;;;;;10.06;80.76;99439.25;1671966;84;21017;-58
2023/03/20 11:32:38;;;;;;;32.13;24.07;;;;;;;9.95;80.85;99441.55;1638331;86;21042;-57
2023/03/20 11:35:33;;;;;;;40.80;25.97;;;;;;;9.90;81.29;99437.00;1665175;84;21137;-58
2023/03/20 11:38:16;;;;;;;35.08;25.97;;;;;;;9.98;81.69;99433.56;1729170;81;21044;-57
2023/03/20 11:40:43;;;;;;;32.88;24.98;;;;;;;10.05;81.43;99436.70;1731345;81;21546;-57
2023/03/20 11:43:20;;;;;;;31.52;23.87;;;;;;;10.06;81.45;99431.42;1728483;81;21019;-57
2023/03/20 11:45:52;;;;;;;24.50;19.15;;;;;;;10.11;81.53;99432.95;1724058;81;21074;-57
2023/03/20 11:48:23;;;;;;;22.65;17.65;;;;;;;10.18;81.40;99431.73;1726269;81;21094;-57
2023/03/20 11:50:57;;;;;;;21.30;17.50;;;;;;;10.25;81.00;99425.27;1721241;82;21002;-57